sensor_id;sensor_type;location;lat;lon;timestamp;temperature;humidity
8002;DHT22;4046;48.774;8.732;2023-03-01T00:02:14;19.80;67.40
8002;DHT22;4046;48.774;8.732;2023-03-01T00:04:40;19.80;67.40
8002;DHT22;4046;48.774;8.732;2023-03-01T00:07:06;19.90;67.50
8002;DHT22;4046;48.774;8.732;2023-03-01T00:09:33;19.90;67.50
8002;DHT22;4046;48.774;8.732;2023-03-01T00:11:59;19.90;67.50
8002;DHT22;4046;48.774;8.732;2023-03-01T00:14:25;19.90;67.50
8002;DHT22;4046;48.774;8.732;2023-03-01T00:16:51;19.90;67.50
8002;DHT22;4046;48.774;8.732;2023-03-01T00:19:19;19.90;67.50
8002;DHT22;4046;48.774;8.732;2023-03-01T00:21:45;19.90;67.50
8002;DHT22;4046;48.774;8.732;2023-03-01T00:24:12;19.90;67.50
8002;DHT22;4046;48.774;8.732;2023-03-01T00:26:38;19.80;67.50
8002;DHT22;4046;48.774;8.732;2023-03-01T00:29:04;19.90;67.40
8002;DHT22;4046;48.774;8.732;2023-03-01T00:31:32;19.90;67.40
8002;DHT22;4046;48.774;8.732;2023-03-01T00:34:03;19.80;67.40
8002;DHT22;4046;48.774;8.732;2023-03-01T00:36:33;19.80;67.40
8002;DHT22;4046;48.774;8.732;2023-03-01T00:39:00;19.90;67.40
8002;DHT22;4046;48.774;8.732;2023-03-01T00:41:27;19.80;67.40
8002;DHT22;4046;48.774;8.732;2023-03-01T00:43:54;19.80;67.30
8002;DHT22;4046;48.774;8.732;2023-03-01T00:46:23;19.90;67.40
8002;DHT22;4046;48.774;8.732;2023-03-01T00:48:50;19.90;67.40
8002;DHT22;4046;48.774;8.732;2023-03-01T00:51:25;19.80;67.30
8002;DHT22;4046;48.774;8.732;2023-03-01T00:53:53;19.80;67.30
8002;DHT22;4046;48.774;8.732;2023-03-01T00:56:20;19.80;67.30
8002;DHT22;4046;48.774;8.732;2023-03-01T00:58:47;19.80;67.30
8002;DHT22;4046;48.774;8.732;2023-03-01T01:01:16;19.90;67.40
8002;DHT22;4046;48.774;8.732;2023-03-01T01:03:49;19.80;67.30
8002;DHT22;4046;48.774;8.732;2023-03-01T01:06:39;19.80;67.30
8002;DHT22;4046;48.774;8.732;2023-03-01T01:09:05;19.90;67.30
8002;DHT22;4046;48.774;8.732;2023-03-01T01:11:33;19.90;67.40
8002;DHT22;4046;48.774;8.732;2023-03-01T01:13:59;19.80;67.30
8002;DHT22;4046;48.774;8.732;2023-03-01T01:16:27;19.80;67.30
8002;DHT22;4046;48.774;8.732;2023-03-01T01:18:53;19.80;67.20
8002;DHT22;4046;48.774;8.732;2023-03-01T01:21:22;19.80;67.20
8002;DHT22;4046;48.774;8.732;2023-03-01T01:23:49;19.80;67.20
8002;DHT22;4046;48.774;8.732;2023-03-01T01:26:23;19.80;67.20
8002;DHT22;4046;48.774;8.732;2023-03-01T01:28:49;19.80;67.20
8002;DHT22;4046;48.774;8.732;2023-03-01T01:31:17;19.80;67.30
8002;DHT22;4046;48.774;8.732;2023-03-01T01:33:44;19.80;67.10
8002;DHT22;4046;48.774;8.732;2023-03-01T01:36:11;19.80;67.20
8002;DHT22;4046;48.774;8.732;2023-03-01T01:38:38;19.80;67.20
8002;DHT22;4046;48.774;8.732;2023-03-01T01:41:06;19.80;67.10
8002;DHT22;4046;48.774;8.732;2023-03-01T01:43:39;19.80;67.10
8002;DHT22;4046;48.774;8.732;2023-03-01T01:51:52;19.80;67.20
8002;DHT22;4046;48.774;8.732;2023-03-01T01:54:26;19.80;67.20
8002;DHT22;4046;48.774;8.732;2023-03-01T01:57:00;19.80;67.10
8002;DHT22;4046;48.774;8.732;2023-03-01T01:59:31;19.80;67.10
8002;DHT22;4046;48.774;8.732;2023-03-01T02:02:00;19.80;67.10
8002;DHT22;4046;48.774;8.732;2023-03-01T02:04:29;19.80;67.10
8002;DHT22;4046;48.774;8.732;2023-03-01T02:07:04;19.80;67.10
8002;DHT22;4046;48.774;8.732;2023-03-01T02:09:34;19.80;67.10
8002;DHT22;4046;48.774;8.732;2023-03-01T02:12:02;19.80;67.10
8002;DHT22;4046;48.774;8.732;2023-03-01T02:14:30;19.80;67.10
8002;DHT22;4046;48.774;8.732;2023-03-01T02:16:56;19.80;67.10
8002;DHT22;4046;48.774;8.732;2023-03-01T02:22:23;19.80;67.10
8002;DHT22;4046;48.774;8.732;2023-03-01T02:30:34;19.80;67.10
8002;DHT22;4046;48.774;8.732;2023-03-01T02:33:03;19.80;67.10
8002;DHT22;4046;48.774;8.732;2023-03-01T02:35:38;19.80;67.10
8002;DHT22;4046;48.774;8.732;2023-03-01T02:38:07;19.80;67.10
8002;DHT22;4046;48.774;8.732;2023-03-01T02:40:36;19.80;67.10
8002;DHT22;4046;48.774;8.732;2023-03-01T02:43:04;19.80;67.00
8002;DHT22;4046;48.774;8.732;2023-03-01T02:45:32;19.80;67.10
8002;DHT22;4046;48.774;8.732;2023-03-01T02:47:58;19.80;67.10
8002;DHT22;4046;48.774;8.732;2023-03-01T02:53:15;19.80;67.00
8002;DHT22;4046;48.774;8.732;2023-03-01T02:55:43;19.80;67.00
8002;DHT22;4046;48.774;8.732;2023-03-01T02:58:09;19.80;67.00
8002;DHT22;4046;48.774;8.732;2023-03-01T03:00:39;19.80;67.00
8002;DHT22;4046;48.774;8.732;2023-03-01T03:03:17;19.80;66.90
8002;DHT22;4046;48.774;8.732;2023-03-01T03:05:45;19.80;66.90
8002;DHT22;4046;48.774;8.732;2023-03-01T03:08:11;19.80;67.00
8002;DHT22;4046;48.774;8.732;2023-03-01T03:10:40;19.80;67.00
8002;DHT22;4046;48.774;8.732;2023-03-01T03:13:12;19.80;66.90
8002;DHT22;4046;48.774;8.732;2023-03-01T03:15:40;19.80;66.90
8002;DHT22;4046;48.774;8.732;2023-03-01T03:18:10;19.80;66.90
8002;DHT22;4046;48.774;8.732;2023-03-01T03:20:40;19.80;67.00
8002;DHT22;4046;48.774;8.732;2023-03-01T03:23:06;19.80;66.90
8002;DHT22;4046;48.774;8.732;2023-03-01T03:25:33;19.80;66.90
8002;DHT22;4046;48.774;8.732;2023-03-01T03:28:04;19.80;66.90
8002;DHT22;4046;48.774;8.732;2023-03-01T03:30:37;19.80;66.90
8002;DHT22;4046;48.774;8.732;2023-03-01T03:33:06;19.80;66.90
8002;DHT22;4046;48.774;8.732;2023-03-01T03:35:38;19.80;66.90
8002;DHT22;4046;48.774;8.732;2023-03-01T03:38:06;19.80;66.90
8002;DHT22;4046;48.774;8.732;2023-03-01T03:40:50;19.80;66.90
8002;DHT22;4046;48.774;8.732;2023-03-01T03:43:19;19.80;66.80
8002;DHT22;4046;48.774;8.732;2023-03-01T03:45:47;19.80;66.90
8002;DHT22;4046;48.774;8.732;2023-03-01T03:48:14;19.80;66.90
8002;DHT22;4046;48.774;8.732;2023-03-01T03:50:41;19.80;66.90
8002;DHT22;4046;48.774;8.732;2023-03-01T03:53:10;19.80;66.80
8002;DHT22;4046;48.774;8.732;2023-03-01T03:55:37;19.80;66.80
8002;DHT22;4046;48.774;8.732;2023-03-01T03:58:07;19.80;66.80
8002;DHT22;4046;48.774;8.732;2023-03-01T04:00:35;19.80;66.80
8002;DHT22;4046;48.774;8.732;2023-03-01T04:03:02;19.80;66.80
8002;DHT22;4046;48.774;8.732;2023-03-01T04:05:29;19.80;66.80
8002;DHT22;4046;48.774;8.732;2023-03-01T04:07:55;19.80;66.80
8002;DHT22;4046;48.774;8.732;2023-03-01T04:10:32;19.80;66.80
8002;DHT22;4046;48.774;8.732;2023-03-01T04:12:59;19.80;66.80
8002;DHT22;4046;48.774;8.732;2023-03-01T04:15:26;19.80;66.80
8002;DHT22;4046;48.774;8.732;2023-03-01T04:17:53;19.80;66.80
8002;DHT22;4046;48.774;8.732;2023-03-01T04:20:26;19.80;66.80
8002;DHT22;4046;48.774;8.732;2023-03-01T04:22:58;19.80;66.80
8002;DHT22;4046;48.774;8.732;2023-03-01T04:25:25;19.80;66.80
8002;DHT22;4046;48.774;8.732;2023-03-01T04:27:51;19.80;66.80
8002;DHT22;4046;48.774;8.732;2023-03-01T04:30:17;19.80;66.80
8002;DHT22;4046;48.774;8.732;2023-03-01T04:32:44;19.80;66.80
8002;DHT22;4046;48.774;8.732;2023-03-01T04:35:10;19.80;66.80
8002;DHT22;4046;48.774;8.732;2023-03-01T04:37:36;19.80;66.80
8002;DHT22;4046;48.774;8.732;2023-03-01T04:40:03;19.80;66.80
8002;DHT22;4046;48.774;8.732;2023-03-01T04:42:42;19.80;66.80
8002;DHT22;4046;48.774;8.732;2023-03-01T04:45:09;19.80;66.70
8002;DHT22;4046;48.774;8.732;2023-03-01T04:47:43;19.80;66.70
8002;DHT22;4046;48.774;8.732;2023-03-01T04:50:12;19.80;66.80
8002;DHT22;4046;48.774;8.732;2023-03-01T04:52:38;19.80;66.80
8002;DHT22;4046;48.774;8.732;2023-03-01T04:55:06;19.80;66.70
8002;DHT22;4046;48.774;8.732;2023-03-01T04:57:32;19.80;66.80
8002;DHT22;4046;48.774;8.732;2023-03-01T04:59:59;19.80;66.70
8002;DHT22;4046;48.774;8.732;2023-03-01T05:02:25;19.80;66.70
8002;DHT22;4046;48.774;8.732;2023-03-01T05:04:51;19.80;66.80
8002;DHT22;4046;48.774;8.732;2023-03-01T05:07:17;19.80;66.70
8002;DHT22;4046;48.774;8.732;2023-03-01T05:09:48;19.80;66.70
8002;DHT22;4046;48.774;8.732;2023-03-01T05:12:14;19.80;66.70
8002;DHT22;4046;48.774;8.732;2023-03-01T05:14:41;19.80;66.70
8002;DHT22;4046;48.774;8.732;2023-03-01T05:17:08;19.80;66.80
8002;DHT22;4046;48.774;8.732;2023-03-01T05:19:34;19.80;66.70
8002;DHT22;4046;48.774;8.732;2023-03-01T05:22:00;19.80;66.80
8002;DHT22;4046;48.774;8.732;2023-03-01T05:24:32;19.80;66.80
8002;DHT22;4046;48.774;8.732;2023-03-01T05:26:59;19.80;66.70
8002;DHT22;4046;48.774;8.732;2023-03-01T05:29:27;19.80;66.80
8002;DHT22;4046;48.774;8.732;2023-03-01T05:31:59;19.80;66.70
8002;DHT22;4046;48.774;8.732;2023-03-01T05:34:32;19.80;66.70
8002;DHT22;4046;48.774;8.732;2023-03-01T05:36:58;19.80;66.70
8002;DHT22;4046;48.774;8.732;2023-03-01T05:39:27;19.80;66.80
8002;DHT22;4046;48.774;8.732;2023-03-01T05:41:57;19.80;66.70
8002;DHT22;4046;48.774;8.732;2023-03-01T05:44:24;19.80;67.50
8002;DHT22;4046;48.774;8.732;2023-03-01T05:46:51;19.80;66.70
8002;DHT22;4046;48.774;8.732;2023-03-01T05:49:18;19.80;66.70
8002;DHT22;4046;48.774;8.732;2023-03-01T05:51:48;19.80;66.80
8002;DHT22;4046;48.774;8.732;2023-03-01T05:54:15;19.80;66.80
8002;DHT22;4046;48.774;8.732;2023-03-01T05:56:42;19.80;66.70
8002;DHT22;4046;48.774;8.732;2023-03-01T05:59:08;19.80;66.70
8002;DHT22;4046;48.774;8.732;2023-03-01T06:01:36;19.80;66.70
8002;DHT22;4046;48.774;8.732;2023-03-01T06:04:03;19.80;66.70
8002;DHT22;4046;48.774;8.732;2023-03-01T06:06:33;19.80;66.70
8002;DHT22;4046;48.774;8.732;2023-03-01T06:09:00;19.80;66.70
8002;DHT22;4046;48.774;8.732;2023-03-01T06:11:26;19.80;66.70
8002;DHT22;4046;48.774;8.732;2023-03-01T06:13:52;19.80;66.70
8002;DHT22;4046;48.774;8.732;2023-03-01T06:16:19;19.80;66.70
8002;DHT22;4046;48.774;8.732;2023-03-01T06:18:45;19.80;66.60
8002;DHT22;4046;48.774;8.732;2023-03-01T06:21:11;19.80;66.70
8002;DHT22;4046;48.774;8.732;2023-03-01T06:23:37;19.80;66.70
8002;DHT22;4046;48.774;8.732;2023-03-01T06:26:07;19.80;66.60
8002;DHT22;4046;48.774;8.732;2023-03-01T06:28:35;19.80;66.70
8002;DHT22;4046;48.774;8.732;2023-03-01T06:31:02;19.80;66.60
8002;DHT22;4046;48.774;8.732;2023-03-01T06:33:28;19.80;66.60
8002;DHT22;4046;48.774;8.732;2023-03-01T06:35:55;19.80;66.70
8002;DHT22;4046;48.774;8.732;2023-03-01T06:38:23;19.80;66.70
8002;DHT22;4046;48.774;8.732;2023-03-01T06:40:54;19.80;66.70
8002;DHT22;4046;48.774;8.732;2023-03-01T06:43:21;19.80;66.70
8002;DHT22;4046;48.774;8.732;2023-03-01T06:45:47;19.80;66.70
8002;DHT22;4046;48.774;8.732;2023-03-01T06:48:14;19.80;66.60
8002;DHT22;4046;48.774;8.732;2023-03-01T06:50:40;19.80;66.70
8002;DHT22;4046;48.774;8.732;2023-03-01T06:53:07;19.80;66.70
8002;DHT22;4046;48.774;8.732;2023-03-01T06:55:33;19.80;66.60
8002;DHT22;4046;48.774;8.732;2023-03-01T06:58:00;19.80;66.60
8002;DHT22;4046;48.774;8.732;2023-03-01T07:00:27;19.80;66.60
8002;DHT22;4046;48.774;8.732;2023-03-01T07:02:54;19.80;66.60
8002;DHT22;4046;48.774;8.732;2023-03-01T07:05:21;19.80;66.60
8002;DHT22;4046;48.774;8.732;2023-03-01T07:07:47;19.80;66.60
8002;DHT22;4046;48.774;8.732;2023-03-01T07:10:13;19.80;66.60
8002;DHT22;4046;48.774;8.732;2023-03-01T07:12:39;19.80;66.60
8002;DHT22;4046;48.774;8.732;2023-03-01T07:15:09;19.80;66.60
8002;DHT22;4046;48.774;8.732;2023-03-01T07:17:36;19.90;66.70
8002;DHT22;4046;48.774;8.732;2023-03-01T07:20:03;19.80;66.60
8002;DHT22;4046;48.774;8.732;2023-03-01T07:22:29;19.90;66.60
8002;DHT22;4046;48.774;8.732;2023-03-01T07:24:55;19.90;66.60
8002;DHT22;4046;48.774;8.732;2023-03-01T07:27:21;19.90;66.80
8002;DHT22;4046;48.774;8.732;2023-03-01T07:29:48;19.90;67.00
8002;DHT22;4046;48.774;8.732;2023-03-01T07:32:14;19.90;67.10
8002;DHT22;4046;48.774;8.732;2023-03-01T07:34:40;19.90;67.20
8002;DHT22;4046;48.774;8.732;2023-03-01T07:37:07;20.00;67.50
8002;DHT22;4046;48.774;8.732;2023-03-01T07:39:33;20.00;67.40
8002;DHT22;4046;48.774;8.732;2023-03-01T07:41:59;20.00;67.40
8002;DHT22;4046;48.774;8.732;2023-03-01T07:44:26;20.10;67.50
8002;DHT22;4046;48.774;8.732;2023-03-01T07:46:52;20.10;67.50
8002;DHT22;4046;48.774;8.732;2023-03-01T07:49:22;20.10;67.40
8002;DHT22;4046;48.774;8.732;2023-03-01T07:51:48;20.20;67.50
8002;DHT22;4046;48.774;8.732;2023-03-01T07:54:14;20.20;67.40
8002;DHT22;4046;48.774;8.732;2023-03-01T07:56:41;20.30;67.50
8002;DHT22;4046;48.774;8.732;2023-03-01T07:59:07;20.30;67.50
8002;DHT22;4046;48.774;8.732;2023-03-01T08:01:33;20.40;67.40
8002;DHT22;4046;48.774;8.732;2023-03-01T08:04:00;20.40;67.40
8002;DHT22;4046;48.774;8.732;2023-03-01T08:06:26;20.50;67.40
8002;DHT22;4046;48.774;8.732;2023-03-01T08:08:52;20.50;67.30
8002;DHT22;4046;48.774;8.732;2023-03-01T08:11:18;20.50;67.20
8002;DHT22;4046;48.774;8.732;2023-03-01T08:13:47;20.50;67.10
8002;DHT22;4046;48.774;8.732;2023-03-01T08:16:15;20.50;67.00
8002;DHT22;4046;48.774;8.732;2023-03-01T08:18:42;20.50;66.90
8002;DHT22;4046;48.774;8.732;2023-03-01T08:21:16;20.50;66.80
8002;DHT22;4046;48.774;8.732;2023-03-01T08:23:43;20.50;66.80
8002;DHT22;4046;48.774;8.732;2023-03-01T08:26:15;20.50;66.80
8002;DHT22;4046;48.774;8.732;2023-03-01T08:28:42;20.60;66.80
8002;DHT22;4046;48.774;8.732;2023-03-01T08:33:40;20.60;66.60
8002;DHT22;4046;48.774;8.732;2023-03-01T08:36:06;20.60;66.60
8002;DHT22;4046;48.774;8.732;2023-03-01T08:38:34;20.70;66.80
8002;DHT22;4046;48.774;8.732;2023-03-01T08:41:02;20.70;66.80
8002;DHT22;4046;48.774;8.732;2023-03-01T08:43:29;20.70;66.80
8002;DHT22;4046;48.774;8.732;2023-03-01T08:45:56;20.70;66.90
8002;DHT22;4046;48.774;8.732;2023-03-01T08:48:22;20.80;67.10
8002;DHT22;4046;48.774;8.732;2023-03-01T08:50:48;20.70;67.10
8002;DHT22;4046;48.774;8.732;2023-03-01T08:53:15;20.70;67.10
8002;DHT22;4046;48.774;8.732;2023-03-01T08:55:41;20.70;67.30
8002;DHT22;4046;48.774;8.732;2023-03-01T08:58:07;20.70;67.50
8002;DHT22;4046;48.774;8.732;2023-03-01T09:00:33;20.70;67.50
8002;DHT22;4046;48.774;8.732;2023-03-01T09:03:01;20.80;67.50
8002;DHT22;4046;48.774;8.732;2023-03-01T09:05:27;20.80;67.50
8002;DHT22;4046;48.774;8.732;2023-03-01T09:07:53;20.80;67.50
8002;DHT22;4046;48.774;8.732;2023-03-01T09:10:19;20.80;67.40
8002;DHT22;4046;48.774;8.732;2023-03-01T09:12:46;20.80;67.30
8002;DHT22;4046;48.774;8.732;2023-03-01T09:15:12;20.80;67.20
8002;DHT22;4046;48.774;8.732;2023-03-01T09:17:38;20.80;67.20
8002;DHT22;4046;48.774;8.732;2023-03-01T09:20:05;20.80;67.40
8002;DHT22;4046;48.774;8.732;2023-03-01T09:22:33;20.90;67.40
8002;DHT22;4046;48.774;8.732;2023-03-01T09:25:00;20.90;67.30
8002;DHT22;4046;48.774;8.732;2023-03-01T09:27:27;20.90;67.30
8002;DHT22;4046;48.774;8.732;2023-03-01T09:29:53;20.90;67.30
8002;DHT22;4046;48.774;8.732;2023-03-01T09:32:22;20.90;67.30
8002;DHT22;4046;48.774;8.732;2023-03-01T09:34:48;21.00;67.40
8002;DHT22;4046;48.774;8.732;2023-03-01T09:37:32;21.00;67.30
8002;DHT22;4046;48.774;8.732;2023-03-01T09:39:59;21.10;67.30
8002;DHT22;4046;48.774;8.732;2023-03-01T09:42:27;21.10;67.30
8002;DHT22;4046;48.774;8.732;2023-03-01T09:45:05;21.20;67.30
8002;DHT22;4046;48.774;8.732;2023-03-01T09:47:36;21.30;67.30
8002;DHT22;4046;48.774;8.732;2023-03-01T09:50:17;21.40;67.10
8002;DHT22;4046;48.774;8.732;2023-03-01T09:53:13;21.50;67.10
8002;DHT22;4046;48.774;8.732;2023-03-01T09:58:31;21.90;66.70
8002;DHT22;4046;48.774;8.732;2023-03-01T10:01:05;22.10;66.40
8002;DHT22;4046;48.774;8.732;2023-03-01T10:03:42;22.60;66.00
8002;DHT22;4046;48.774;8.732;2023-03-01T10:06:18;23.20;65.60
8002;DHT22;4046;48.774;8.732;2023-03-01T10:08:58;23.60;65.00
8002;DHT22;4046;48.774;8.732;2023-03-01T10:11:38;23.70;65.70
8002;DHT22;4046;48.774;8.732;2023-03-01T10:16:54;24.80;64.80
8002;DHT22;4046;48.774;8.732;2023-03-01T10:19:33;25.50;64.20
8002;DHT22;4046;48.774;8.732;2023-03-01T10:22:07;25.90;63.40
8002;DHT22;4046;48.774;8.732;2023-03-01T10:24:37;26.20;62.90
8002;DHT22;4046;48.774;8.732;2023-03-01T10:27:17;26.50;62.60
8002;DHT22;4046;48.774;8.732;2023-03-01T10:32:37;27.00;62.00
8002;DHT22;4046;48.774;8.732;2023-03-01T10:35:22;27.00;61.70
8002;DHT22;4046;48.774;8.732;2023-03-01T10:38:03;27.20;61.60
8002;DHT22;4046;48.774;8.732;2023-03-01T10:40:31;27.00;61.50
8002;DHT22;4046;48.774;8.732;2023-03-01T10:43:03;26.40;61.30
8002;DHT22;4046;48.774;8.732;2023-03-01T10:45:38;26.00;62.20
8002;DHT22;4046;48.774;8.732;2023-03-01T10:50:34;25.20;61.90
8002;DHT22;4046;48.774;8.732;2023-03-01T10:53:04;24.80;62.20
8002;DHT22;4046;48.774;8.732;2023-03-01T10:55:33;24.50;62.60
8002;DHT22;4046;48.774;8.732;2023-03-01T10:58:18;24.20;63.10
8002;DHT22;4046;48.774;8.732;2023-03-01T11:00:55;23.80;63.20
8002;DHT22;4046;48.774;8.732;2023-03-01T11:03:25;23.60;63.60
8002;DHT22;4046;48.774;8.732;2023-03-01T11:05:56;23.40;63.90
8002;DHT22;4046;48.774;8.732;2023-03-01T11:08:32;23.20;64.00
8002;DHT22;4046;48.774;8.732;2023-03-01T11:11:05;23.10;64.00
8002;DHT22;4046;48.774;8.732;2023-03-01T11:13:32;22.90;64.10
8002;DHT22;4046;48.774;8.732;2023-03-01T11:16:06;22.70;64.10
8002;DHT22;4046;48.774;8.732;2023-03-01T11:18:33;22.60;64.50
8002;DHT22;4046;48.774;8.732;2023-03-01T11:21:00;22.40;64.60
8002;DHT22;4046;48.774;8.732;2023-03-01T11:23:29;22.30;64.80
8002;DHT22;4046;48.774;8.732;2023-03-01T11:26:00;22.10;64.70
8002;DHT22;4046;48.774;8.732;2023-03-01T11:28:29;22.00;64.80
8002;DHT22;4046;48.774;8.732;2023-03-01T11:30:56;21.90;65.00
8002;DHT22;4046;48.774;8.732;2023-03-01T11:35:57;21.70;65.20
8002;DHT22;4046;48.774;8.732;2023-03-01T11:38:28;21.70;65.40
8002;DHT22;4046;48.774;8.732;2023-03-01T11:41:06;21.60;65.50
8002;DHT22;4046;48.774;8.732;2023-03-01T11:43:41;21.60;65.70
8002;DHT22;4046;48.774;8.732;2023-03-01T11:52:15;21.30;66.00
8002;DHT22;4046;48.774;8.732;2023-03-01T12:09:55;21.10;66.70
8002;DHT22;4046;48.774;8.732;2023-03-01T12:25:34;20.90;67.10
8002;DHT22;4046;48.774;8.732;2023-03-01T12:31:01;20.80;67.20
8002;DHT22;4046;48.774;8.732;2023-03-01T12:42:26;20.80;67.30
8002;DHT22;4046;48.774;8.732;2023-03-01T12:50:38;20.70;67.50
8002;DHT22;4046;48.774;8.732;2023-03-01T12:53:21;20.70;67.60
8002;DHT22;4046;48.774;8.732;2023-03-01T12:55:49;20.70;67.70
8002;DHT22;4046;48.774;8.732;2023-03-01T13:04:15;20.70;67.90
8002;DHT22;4046;48.774;8.732;2023-03-01T13:07:49;20.60;68.00
8002;DHT22;4046;48.774;8.732;2023-03-01T13:15:35;20.60;68.00
8002;DHT22;4046;48.774;8.732;2023-03-01T13:20:59;20.60;67.90
8002;DHT22;4046;48.774;8.732;2023-03-01T13:23:28;20.60;67.80
8002;DHT22;4046;48.774;8.732;2023-03-01T13:31:02;20.60;67.80
8002;DHT22;4046;48.774;8.732;2023-03-01T13:35:56;20.60;67.90
8002;DHT22;4046;48.774;8.732;2023-03-01T13:38:46;20.60;68.00
8002;DHT22;4046;48.774;8.732;2023-03-01T13:41:15;20.60;68.10
8002;DHT22;4046;48.774;8.732;2023-03-01T13:43:44;20.60;68.10
8002;DHT22;4046;48.774;8.732;2023-03-01T13:46:23;20.60;68.20
8002;DHT22;4046;48.774;8.732;2023-03-01T13:48:55;20.60;68.30
8002;DHT22;4046;48.774;8.732;2023-03-01T13:51:27;20.50;68.20
8002;DHT22;4046;48.774;8.732;2023-03-01T13:53:55;20.50;68.30
8002;DHT22;4046;48.774;8.732;2023-03-01T13:56:28;20.50;69.10
8002;DHT22;4046;48.774;8.732;2023-03-01T13:59:01;20.50;68.30
8002;DHT22;4046;48.774;8.732;2023-03-01T14:01:31;20.50;68.30
8002;DHT22;4046;48.774;8.732;2023-03-01T14:03:58;20.50;68.40
8002;DHT22;4046;48.774;8.732;2023-03-01T14:06:27;20.50;68.50
8002;DHT22;4046;48.774;8.732;2023-03-01T14:14:30;20.50;68.50
8002;DHT22;4046;48.774;8.732;2023-03-01T14:19:56;20.50;68.30
8002;DHT22;4046;48.774;8.732;2023-03-01T14:22:26;20.40;68.20
8002;DHT22;4046;48.774;8.732;2023-03-01T14:25:01;20.40;69.00
8002;DHT22;4046;48.774;8.732;2023-03-01T14:27:37;20.40;68.20
8002;DHT22;4046;48.774;8.732;2023-03-01T14:30:16;20.40;68.10
8002;DHT22;4046;48.774;8.732;2023-03-01T14:33:03;20.40;68.10
8002;DHT22;4046;48.774;8.732;2023-03-01T14:35:35;20.30;68.10
8002;DHT22;4046;48.774;8.732;2023-03-01T14:38:02;20.30;68.20
8002;DHT22;4046;48.774;8.732;2023-03-01T14:40:32;20.30;68.30
8002;DHT22;4046;48.774;8.732;2023-03-01T14:43:01;20.30;68.30
8002;DHT22;4046;48.774;8.732;2023-03-01T14:45:29;20.30;68.40
8002;DHT22;4046;48.774;8.732;2023-03-01T14:48:00;20.30;68.50
8002;DHT22;4046;48.774;8.732;2023-03-01T14:50:30;20.30;68.50
8002;DHT22;4046;48.774;8.732;2023-03-01T14:53:03;20.30;68.50
8002;DHT22;4046;48.774;8.732;2023-03-01T14:55:35;20.30;68.60
8002;DHT22;4046;48.774;8.732;2023-03-01T14:58:04;20.20;68.60
8002;DHT22;4046;48.774;8.732;2023-03-01T15:00:33;20.20;68.60
8002;DHT22;4046;48.774;8.732;2023-03-01T15:03:17;20.20;68.60
8002;DHT22;4046;48.774;8.732;2023-03-01T15:05:46;20.20;68.80
8002;DHT22;4046;48.774;8.732;2023-03-01T15:08:21;20.20;68.80
8002;DHT22;4046;48.774;8.732;2023-03-01T15:11:02;20.20;68.80
8002;DHT22;4046;48.774;8.732;2023-03-01T15:13:33;20.20;68.80
8002;DHT22;4046;48.774;8.732;2023-03-01T15:16:13;20.20;68.80
8002;DHT22;4046;48.774;8.732;2023-03-01T15:18:49;20.10;68.80
8002;DHT22;4046;48.774;8.732;2023-03-01T15:21:29;20.10;68.80
8002;DHT22;4046;48.774;8.732;2023-03-01T15:26:39;20.10;68.90
8002;DHT22;4046;48.774;8.732;2023-03-01T15:29:16;20.10;68.90
8002;DHT22;4046;48.774;8.732;2023-03-01T15:31:54;20.10;68.90
8002;DHT22;4046;48.774;8.732;2023-03-01T15:34:23;20.10;68.90
8002;DHT22;4046;48.774;8.732;2023-03-01T15:36:52;20.10;69.00
8002;DHT22;4046;48.774;8.732;2023-03-01T15:44:37;20.10;69.00
8002;DHT22;4046;48.774;8.732;2023-03-01T15:47:29;20.10;69.10
8002;DHT22;4046;48.774;8.732;2023-03-01T15:49:57;20.00;69.00
8002;DHT22;4046;48.774;8.732;2023-03-01T15:54:57;20.00;69.00
8002;DHT22;4046;48.774;8.732;2023-03-01T15:57:23;20.00;69.10
8002;DHT22;4046;48.774;8.732;2023-03-01T15:59:50;20.00;69.10
8002;DHT22;4046;48.774;8.732;2023-03-01T16:02:16;20.00;69.00
8002;DHT22;4046;48.774;8.732;2023-03-01T16:04:42;20.00;69.00
8002;DHT22;4046;48.774;8.732;2023-03-01T16:07:09;19.90;68.80
8002;DHT22;4046;48.774;8.732;2023-03-01T16:09:35;20.00;68.90
8002;DHT22;4046;48.774;8.732;2023-03-01T16:12:02;19.90;68.80
8002;DHT22;4046;48.774;8.732;2023-03-01T16:14:28;19.90;68.80
8002;DHT22;4046;48.774;8.732;2023-03-01T16:16:55;19.90;68.80
8002;DHT22;4046;48.774;8.732;2023-03-01T16:19:21;19.90;68.80
8002;DHT22;4046;48.774;8.732;2023-03-01T16:21:47;19.90;68.80
8002;DHT22;4046;48.774;8.732;2023-03-01T16:24:15;19.90;68.80
8002;DHT22;4046;48.774;8.732;2023-03-01T16:26:43;19.90;68.80
8002;DHT22;4046;48.774;8.732;2023-03-01T16:29:09;19.90;68.80
8002;DHT22;4046;48.774;8.732;2023-03-01T16:31:36;19.90;68.80
8002;DHT22;4046;48.774;8.732;2023-03-01T16:34:02;19.90;69.50
8002;DHT22;4046;48.774;8.732;2023-03-01T16:36:28;19.80;68.70
8002;DHT22;4046;48.774;8.732;2023-03-01T16:38:58;19.80;68.80
8002;DHT22;4046;48.774;8.732;2023-03-01T16:41:24;19.80;68.70
8002;DHT22;4046;48.774;8.732;2023-03-01T16:43:51;19.80;68.70
8002;DHT22;4046;48.774;8.732;2023-03-01T16:46:20;19.80;68.70
8002;DHT22;4046;48.774;8.732;2023-03-01T16:48:47;19.80;68.60
8002;DHT22;4046;48.774;8.732;2023-03-01T16:51:14;19.80;68.60
8002;DHT22;4046;48.774;8.732;2023-03-01T16:53:41;19.90;68.70
8002;DHT22;4046;48.774;8.732;2023-03-01T16:56:09;19.90;68.60
8002;DHT22;4046;48.774;8.732;2023-03-01T16:58:37;20.00;68.60
8002;DHT22;4046;48.774;8.732;2023-03-01T17:01:07;20.00;68.60
8002;DHT22;4046;48.774;8.732;2023-03-01T17:03:34;20.00;68.50
8002;DHT22;4046;48.774;8.732;2023-03-01T17:06:05;20.00;68.50
8002;DHT22;4046;48.774;8.732;2023-03-01T17:08:32;20.10;68.50
8002;DHT22;4046;48.774;8.732;2023-03-01T17:11:09;20.10;68.50
8002;DHT22;4046;48.774;8.732;2023-03-01T17:13:37;20.10;68.50
8002;DHT22;4046;48.774;8.732;2023-03-01T17:16:06;20.10;68.50
8002;DHT22;4046;48.774;8.732;2023-03-01T17:18:32;20.10;68.50
8002;DHT22;4046;48.774;8.732;2023-03-01T17:20:59;20.10;68.50
8002;DHT22;4046;48.774;8.732;2023-03-01T17:23:26;20.10;68.40
8002;DHT22;4046;48.774;8.732;2023-03-01T17:25:53;20.10;68.40
8002;DHT22;4046;48.774;8.732;2023-03-01T17:28:22;20.10;68.40
8002;DHT22;4046;48.774;8.732;2023-03-01T17:30:48;20.10;68.40
8002;DHT22;4046;48.774;8.732;2023-03-01T17:33:15;20.10;68.40
8002;DHT22;4046;48.774;8.732;2023-03-01T17:35:42;20.10;68.40
8002;DHT22;4046;48.774;8.732;2023-03-01T17:38:11;20.10;68.50
8002;DHT22;4046;48.774;8.732;2023-03-01T17:40:37;20.10;68.40
8002;DHT22;4046;48.774;8.732;2023-03-01T17:43:04;20.10;68.50
8002;DHT22;4046;48.774;8.732;2023-03-01T17:45:31;20.10;68.40
8002;DHT22;4046;48.774;8.732;2023-03-01T17:47:57;20.10;68.40
8002;DHT22;4046;48.774;8.732;2023-03-01T17:50:23;20.10;68.40
8002;DHT22;4046;48.774;8.732;2023-03-01T17:52:49;20.10;68.50
8002;DHT22;4046;48.774;8.732;2023-03-01T17:55:16;20.10;68.40
8002;DHT22;4046;48.774;8.732;2023-03-01T17:57:42;20.10;68.50
8002;DHT22;4046;48.774;8.732;2023-03-01T18:00:13;20.10;68.40
8002;DHT22;4046;48.774;8.732;2023-03-01T18:02:40;20.10;68.50
8002;DHT22;4046;48.774;8.732;2023-03-01T18:05:07;20.10;68.40
8002;DHT22;4046;48.774;8.732;2023-03-01T18:07:34;20.10;68.40
8002;DHT22;4046;48.774;8.732;2023-03-01T18:10:00;20.10;68.40
8002;DHT22;4046;48.774;8.732;2023-03-01T18:12:27;20.10;68.50
8002;DHT22;4046;48.774;8.732;2023-03-01T18:14:53;20.10;68.50
8002;DHT22;4046;48.774;8.732;2023-03-01T18:17:20;20.10;68.40
8002;DHT22;4046;48.774;8.732;2023-03-01T18:19:46;20.10;68.40
8002;DHT22;4046;48.774;8.732;2023-03-01T18:22:13;20.10;68.40